sensor_id;sensor_type;location;lat;lon;timestamp;P1;durP1;ratioP1;P2;durP2;ratioP2
44762;SDS011;30483;49.576;6.036;2024-03-25T04:32:09;6.82;;;2.80;;
44762;SDS011;30483;49.576;6.036;2024-03-25T04:34:34;5.45;;;2.30;;
44762;SDS011;30483;49.576;6.036;2024-03-25T04:37:00;6.60;;;2.65;;
44762;SDS011;30483;49.576;6.036;2024-03-25T04:39:26;6.13;;;2.60;;
44762;SDS011;30483;49.576;6.036;2024-03-25T04:41:52;6.15;;;2.75;;
44762;SDS011;30483;49.576;6.036;2024-03-25T04:44:17;5.60;;;2.35;;
44762;SDS011;30483;49.576;6.036;2024-03-25T04:46:43;4.85;;;2.40;;
44762;SDS011;30483;49.576;6.036;2024-03-25T04:49:10;6.63;;;2.67;;
44762;SDS011;30483;49.576;6.036;2024-03-25T04:51:35;4.97;;;2.20;;
44762;SDS011;30483;49.576;6.036;2024-03-25T04:54:01;8.07;;;2.60;;
44762;SDS011;30483;49.576;6.036;2024-03-25T04:56:26;6.70;;;2.80;;
44762;SDS011;30483;49.576;6.036;2024-03-25T04:58:52;5.18;;;2.35;;
44762;SDS011;30483;49.576;6.036;2024-03-25T05:01:18;6.07;;;2.47;;
44762;SDS011;30483;49.576;6.036;2024-03-25T05:03:44;5.75;;;2.50;;
44762;SDS011;30483;49.576;6.036;2024-03-25T05:06:09;7.43;;;2.90;;
44762;SDS011;30483;49.576;6.036;2024-03-25T05:16:06;4.82;;;2.20;;
44762;SDS011;30483;49.576;6.036;2024-03-25T05:18:33;4.38;;;2.10;;
44762;SDS011;30483;49.576;6.036;2024-03-25T05:20:58;4.57;;;2.35;;
44762;SDS011;30483;49.576;6.036;2024-03-25T05:23:24;5.25;;;2.40;;
44762;SDS011;30483;49.576;6.036;2024-03-25T05:25:50;6.75;;;2.70;;
44762;SDS011;30483;49.576;6.036;2024-03-25T05:28:15;4.47;;;2.08;;
44762;SDS011;30483;49.576;6.036;2024-03-25T05:30:41;5.95;;;2.97;;
44762;SDS011;30483;49.576;6.036;2024-03-25T05:33:06;8.25;;;3.88;;
44762;SDS011;30483;49.576;6.036;2024-03-25T05:35:32;8.43;;;3.13;;
44762;SDS011;30483;49.576;6.036;2024-03-25T05:38:01;7.82;;;3.28;;
44762;SDS011;30483;49.576;6.036;2024-03-25T05:40:28;7.15;;;3.00;;
44762;SDS011;30483;49.576;6.036;2024-03-25T05:42:54;7.55;;;3.10;;
44762;SDS011;30483;49.576;6.036;2024-03-25T05:45:20;6.78;;;2.90;;
44762;SDS011;30483;49.576;6.036;2024-03-25T05:47:45;9.38;;;2.78;;
44762;SDS011;30483;49.576;6.036;2024-03-25T05:50:11;6.97;;;2.83;;
44762;SDS011;30483;49.576;6.036;2024-03-25T05:52:37;6.70;;;3.13;;
44762;SDS011;30483;49.576;6.036;2024-03-25T05:55:02;8.68;;;3.13;;
44762;SDS011;30483;49.576;6.036;2024-03-25T05:57:28;8.32;;;3.92;;
44762;SDS011;30483;49.576;6.036;2024-03-25T05:59:54;10.02;;;3.50;;
44762;SDS011;30483;49.576;6.036;2024-03-25T06:02:20;7.53;;;3.35;;
44762;SDS011;30483;49.576;6.036;2024-03-25T06:04:45;7.55;;;3.00;;
44762;SDS011;30483;49.576;6.036;2024-03-25T06:07:11;6.43;;;3.30;;
44762;SDS011;30483;49.576;6.036;2024-03-25T06:09:37;8.43;;;3.03;;
44762;SDS011;30483;49.576;6.036;2024-03-25T06:12:02;5.38;;;2.90;;
44762;SDS011;30483;49.576;6.036;2024-03-25T06:14:28;6.35;;;2.90;;
44762;SDS011;30483;49.576;6.036;2024-03-25T06:16:54;6.35;;;2.72;;
44762;SDS011;30483;49.576;6.036;2024-03-25T06:19:19;7.55;;;2.90;;
44762;SDS011;30483;49.576;6.036;2024-03-25T06:21:45;10.77;;;3.38;;
44762;SDS011;30483;49.576;6.036;2024-03-25T06:24:11;10.02;;;3.78;;
44762;SDS011;30483;49.576;6.036;2024-03-25T06:26:36;10.68;;;4.50;;
44762;SDS011;30483;49.576;6.036;2024-03-25T06:29:02;9.30;;;3.65;;
44762;SDS011;30483;49.576;6.036;2024-03-25T06:31:28;9.88;;;3.80;;
44762;SDS011;30483;49.576;6.036;2024-03-25T06:34:12;8.30;;;3.42;;
44762;SDS011;30483;49.576;6.036;2024-03-25T06:36:44;10.43;;;3.60;;
44762;SDS011;30483;49.576;6.036;2024-03-25T06:39:10;8.80;;;3.35;;
44762;SDS011;30483;49.576;6.036;2024-03-25T06:41:36;5.05;;;2.90;;
44762;SDS011;30483;49.576;6.036;2024-03-25T06:44:02;6.60;;;3.17;;
44762;SDS011;30483;49.576;6.036;2024-03-25T06:46:27;5.85;;;3.10;;
44762;SDS011;30483;49.576;6.036;2024-03-25T06:48:53;6.47;;;2.97;;
44762;SDS011;30483;49.576;6.036;2024-03-25T06:51:18;5.85;;;3.10;;
44762;SDS011;30483;49.576;6.036;2024-03-25T06:53:44;5.45;;;3.03;;
44762;SDS011;30483;49.576;6.036;2024-03-25T06:56:10;9.73;;;3.60;;
44762;SDS011;30483;49.576;6.036;2024-03-25T06:58:35;8.43;;;3.42;;
44762;SDS011;30483;49.576;6.036;2024-03-25T07:01:05;8.02;;;3.42;;
44762;SDS011;30483;49.576;6.036;2024-03-25T07:03:32;12.70;;;4.50;;
44762;SDS011;30483;49.576;6.036;2024-03-25T07:05:58;12.07;;;5.80;;
44762;SDS011;30483;49.576;6.036;2024-03-25T07:08:25;15.27;;;6.10;;
44762;SDS011;30483;49.576;6.036;2024-03-25T07:10:52;10.63;;;6.20;;
44762;SDS011;30483;49.576;6.036;2024-03-25T07:13:18;14.65;;;5.90;;
44762;SDS011;30483;49.576;6.036;2024-03-25T07:15:52;9.38;;;5.72;;
44762;SDS011;30483;49.576;6.036;2024-03-25T07:18:18;10.82;;;5.38;;
44762;SDS011;30483;49.576;6.036;2024-03-25T07:20:43;8.90;;;4.55;;
44762;SDS011;30483;49.576;6.036;2024-03-25T07:23:09;8.43;;;4.55;;
44762;SDS011;30483;49.576;6.036;2024-03-25T07:25:35;9.48;;;5.13;;
44762;SDS011;30483;49.576;6.036;2024-03-25T07:28:04;12.80;;;5.03;;
44762;SDS011;30483;49.576;6.036;2024-03-25T07:30:30;8.15;;;4.55;;
44762;SDS011;30483;49.576;6.036;2024-03-25T07:32:57;8.68;;;4.63;;
44762;SDS011;30483;49.576;6.036;2024-03-25T07:35:23;9.27;;;4.70;;
44762;SDS011;30483;49.576;6.036;2024-03-25T07:37:49;10.57;;;4.95;;
44762;SDS011;30483;49.576;6.036;2024-03-25T07:40:16;9.50;;;4.05;;
44762;SDS011;30483;49.576;6.036;2024-03-25T07:42:46;11.20;;;4.55;;
44762;SDS011;30483;49.576;6.036;2024-03-25T07:45:12;7.28;;;4.32;;
44762;SDS011;30483;49.576;6.036;2024-03-25T07:47:38;11.05;;;4.88;;
44762;SDS011;30483;49.576;6.036;2024-03-25T07:50:04;9.05;;;4.97;;
44762;SDS011;30483;49.576;6.036;2024-03-25T07:52:30;8.95;;;4.70;;
44762;SDS011;30483;49.576;6.036;2024-03-25T07:54:57;8.55;;;4.90;;
44762;SDS011;30483;49.576;6.036;2024-03-25T07:57:22;8.50;;;4.78;;
44762;SDS011;30483;49.576;6.036;2024-03-25T07:59:48;8.50;;;4.80;;
44762;SDS011;30483;49.576;6.036;2024-03-25T08:02:14;7.43;;;4.35;;
44762;SDS011;30483;49.576;6.036;2024-03-25T08:04:40;10.20;;;3.95;;
44762;SDS011;30483;49.576;6.036;2024-03-25T08:07:06;10.85;;;5.50;;
44762;SDS011;30483;49.576;6.036;2024-03-25T08:09:32;12.98;;;5.15;;
44762;SDS011;30483;49.576;6.036;2024-03-25T08:11:57;9.32;;;5.45;;
44762;SDS011;30483;49.576;6.036;2024-03-25T08:14:23;11.48;;;5.30;;
44762;SDS011;30483;49.576;6.036;2024-03-25T08:16:49;9.48;;;5.18;;
44762;SDS011;30483;49.576;6.036;2024-03-25T08:19:14;11.10;;;5.60;;
44762;SDS011;30483;49.576;6.036;2024-03-25T08:21:40;11.88;;;5.80;;
44762;SDS011;30483;49.576;6.036;2024-03-25T08:24:06;11.07;;;5.95;;
44762;SDS011;30483;49.576;6.036;2024-03-25T08:26:32;12.30;;;5.88;;
44762;SDS011;30483;49.576;6.036;2024-03-25T08:28:58;12.02;;;5.65;;
44762;SDS011;30483;49.576;6.036;2024-03-25T08:31:23;15.48;;;7.45;;
44762;SDS011;30483;49.576;6.036;2024-03-25T08:33:49;14.60;;;6.78;;
44762;SDS011;30483;49.576;6.036;2024-03-25T08:36:15;15.00;;;6.80;;
44762;SDS011;30483;49.576;6.036;2024-03-25T08:38:41;12.52;;;6.63;;
44762;SDS011;30483;49.576;6.036;2024-03-25T08:41:06;11.85;;;6.20;;
44762;SDS011;30483;49.576;6.036;2024-03-25T08:43:32;15.63;;;6.40;;
44762;SDS011;30483;49.576;6.036;2024-03-25T08:45:57;14.10;;;6.50;;
44762;SDS011;30483;49.576;6.036;2024-03-25T08:48:23;12.27;;;5.35;;
44762;SDS011;30483;49.576;6.036;2024-03-25T08:50:49;9.55;;;5.55;;
44762;SDS011;30483;49.576;6.036;2024-03-25T08:53:15;10.45;;;5.55;;
44762;SDS011;30483;49.576;6.036;2024-03-25T08:55:47;10.63;;;4.90;;
44762;SDS011;30483;49.576;6.036;2024-03-25T08:58:13;11.05;;;5.07;;
44762;SDS011;30483;49.576;6.036;2024-03-25T09:00:39;10.65;;;4.97;;
44762;SDS011;30483;49.576;6.036;2024-03-25T09:03:05;7.57;;;4.70;;
44762;SDS011;30483;49.576;6.036;2024-03-25T09:05:31;9.02;;;5.05;;
44762;SDS011;30483;49.576;6.036;2024-03-25T09:07:57;9.65;;;4.68;;
44762;SDS011;30483;49.576;6.036;2024-03-25T09:10:23;9.15;;;4.70;;
44762;SDS011;30483;49.576;6.036;2024-03-25T09:13:10;9.93;;;4.85;;
44762;SDS011;30483;49.576;6.036;2024-03-25T09:15:36;8.73;;;4.40;;
44762;SDS011;30483;49.576;6.036;2024-03-25T09:18:02;9.63;;;4.30;;
44762;SDS011;30483;49.576;6.036;2024-03-25T09:20:27;11.68;;;4.47;;
44762;SDS011;30483;49.576;6.036;2024-03-25T09:22:53;8.65;;;3.90;;
44762;SDS011;30483;49.576;6.036;2024-03-25T09:25:19;8.35;;;3.88;;
44762;SDS011;30483;49.576;6.036;2024-03-25T09:27:48;13.07;;;4.32;;
44762;SDS011;30483;49.576;6.036;2024-03-25T09:30:15;9.70;;;4.47;;
44762;SDS011;30483;49.576;6.036;2024-03-25T09:32:41;7.32;;;4.40;;
44762;SDS011;30483;49.576;6.036;2024-03-25T09:35:10;12.25;;;4.65;;
44762;SDS011;30483;49.576;6.036;2024-03-25T09:37:36;10.43;;;4.53;;
44762;SDS011;30483;49.576;6.036;2024-03-25T09:40:02;10.35;;;4.55;;
44762;SDS011;30483;49.576;6.036;2024-03-25T09:42:36;16.23;;;4.30;;
44762;SDS011;30483;49.576;6.036;2024-03-25T09:45:08;12.07;;;4.03;;
44762;SDS011;30483;49.576;6.036;2024-03-25T09:47:37;10.50;;;3.70;;
44762;SDS011;30483;49.576;6.036;2024-03-25T09:50:04;5.95;;;3.03;;
44762;SDS011;30483;49.576;6.036;2024-03-25T09:52:33;9.48;;;3.00;;
44762;SDS011;30483;49.576;6.036;2024-03-25T09:54:59;7.65;;;2.80;;
44762;SDS011;30483;49.576;6.036;2024-03-25T09:57:24;6.50;;;2.97;;
44762;SDS011;30483;49.576;6.036;2024-03-25T09:59:51;5.70;;;2.80;;
44762;SDS011;30483;49.576;6.036;2024-03-25T10:02:17;8.25;;;2.80;;
44762;SDS011;30483;49.576;6.036;2024-03-25T10:04:46;7.40;;;2.90;;
44762;SDS011;30483;49.576;6.036;2024-03-25T10:07:22;8.07;;;2.70;;
44762;SDS011;30483;49.576;6.036;2024-03-25T10:09:52;6.43;;;2.95;;
44762;SDS011;30483;49.576;6.036;2024-03-25T10:12:17;5.18;;;2.35;;
44762;SDS011;30483;49.576;6.036;2024-03-25T10:14:43;5.93;;;2.33;;
44762;SDS011;30483;49.576;6.036;2024-03-25T10:17:09;4.97;;;2.33;;
44762;SDS011;30483;49.576;6.036;2024-03-25T10:19:35;5.13;;;2.55;;
44762;SDS011;30483;49.576;6.036;2024-03-25T10:22:02;5.53;;;2.17;;
44762;SDS011;30483;49.576;6.036;2024-03-25T10:24:42;6.15;;;2.40;;
44762;SDS011;30483;49.576;6.036;2024-03-25T10:27:22;5.15;;;2.55;;
44762;SDS011;30483;49.576;6.036;2024-03-25T10:29:51;5.43;;;2.47;;
44762;SDS011;30483;49.576;6.036;2024-03-25T10:32:18;6.90;;;2.55;;
44762;SDS011;30483;49.576;6.036;2024-03-25T10:34:44;5.47;;;2.58;;
44762;SDS011;30483;49.576;6.036;2024-03-25T10:37:10;4.68;;;2.28;;
44762;SDS011;30483;49.576;6.036;2024-03-25T10:39:43;4.97;;;2.10;;
44762;SDS011;30483;49.576;6.036;2024-03-25T10:42:18;4.55;;;2.40;;
44762;SDS011;30483;49.576;6.036;2024-03-25T10:44:45;4.07;;;2.20;;
44762;SDS011;30483;49.576;6.036;2024-03-25T10:47:17;6.22;;;2.55;;
44762;SDS011;30483;49.576;6.036;2024-03-25T10:49:48;8.30;;;2.40;;
44762;SDS011;30483;49.576;6.036;2024-03-25T10:52:24;4.82;;;2.20;;
44762;SDS011;30483;49.576;6.036;2024-03-25T10:54:54;5.47;;;2.50;;
44762;SDS011;30483;49.576;6.036;2024-03-25T10:57:21;7.47;;;2.70;;
44762;SDS011;30483;49.576;6.036;2024-03-25T10:59:48;5.00;;;2.50;;
44762;SDS011;30483;49.576;6.036;2024-03-25T11:05:10;7.57;;;2.45;;
44762;SDS011;30483;49.576;6.036;2024-03-25T11:07:37;4.50;;;2.10;;
44762;SDS011;30483;49.576;6.036;2024-03-25T11:10:05;5.57;;;2.20;;
44762;SDS011;30483;49.576;6.036;2024-03-25T11:12:35;4.05;;;2.20;;
44762;SDS011;30483;49.576;6.036;2024-03-25T11:15:02;4.45;;;2.10;;
44762;SDS011;30483;49.576;6.036;2024-03-25T11:17:29;2.95;;;1.75;;
44762;SDS011;30483;49.576;6.036;2024-03-25T11:20:12;5.88;;;2.15;;
44762;SDS011;30483;49.576;6.036;2024-03-25T11:22:50;4.57;;;2.30;;
44762;SDS011;30483;49.576;6.036;2024-03-25T11:25:17;4.97;;;1.80;;
44762;SDS011;30483;49.576;6.036;2024-03-25T11:27:45;3.72;;;1.80;;
44762;SDS011;30483;49.576;6.036;2024-03-25T11:30:11;3.65;;;1.85;;
44762;SDS011;30483;49.576;6.036;2024-03-25T11:32:54;4.57;;;1.98;;
44762;SDS011;30483;49.576;6.036;2024-03-25T11:35:20;4.93;;;1.70;;
44762;SDS011;30483;49.576;6.036;2024-03-25T11:37:46;4.38;;;1.85;;
44762;SDS011;30483;49.576;6.036;2024-03-25T11:40:13;3.45;;;2.03;;
44762;SDS011;30483;49.576;6.036;2024-03-25T11:42:42;6.43;;;2.20;;
44762;SDS011;30483;49.576;6.036;2024-03-25T11:45:13;5.75;;;2.08;;
44762;SDS011;30483;49.576;6.036;2024-03-25T11:47:43;5.78;;;1.88;;
44762;SDS011;30483;49.576;6.036;2024-03-25T11:50:11;4.70;;;1.80;;
44762;SDS011;30483;49.576;6.036;2024-03-25T11:52:38;4.90;;;1.80;;
44762;SDS011;30483;49.576;6.036;2024-03-25T11:55:04;3.92;;;1.58;;
44762;SDS011;30483;49.576;6.036;2024-03-25T11:57:30;3.70;;;1.85;;
44762;SDS011;30483;49.576;6.036;2024-03-25T11:59:57;4.68;;;1.90;;
44762;SDS011;30483;49.576;6.036;2024-03-25T12:02:23;3.80;;;1.80;;
44762;SDS011;30483;49.576;6.036;2024-03-25T12:04:50;4.45;;;1.90;;
44762;SDS011;30483;49.576;6.036;2024-03-25T12:07:15;4.47;;;1.60;;
44762;SDS011;30483;49.576;6.036;2024-03-25T12:09:41;3.80;;;1.67;;
44762;SDS011;30483;49.576;6.036;2024-03-25T12:12:25;4.18;;;1.50;;
44762;SDS011;30483;49.576;6.036;2024-03-25T12:14:52;3.80;;;1.50;;
44762;SDS011;30483;49.576;6.036;2024-03-25T12:17:21;3.88;;;1.70;;
44762;SDS011;30483;49.576;6.036;2024-03-25T12:22:30;3.95;;;1.50;;
44762;SDS011;30483;49.576;6.036;2024-03-25T12:24:59;3.72;;;1.50;;
44762;SDS011;30483;49.576;6.036;2024-03-25T12:27:27;3.22;;;1.50;;
44762;SDS011;30483;49.576;6.036;2024-03-25T12:30:00;6.93;;;1.70;;
44762;SDS011;30483;49.576;6.036;2024-03-25T12:35:12;4.25;;;1.60;;
44762;SDS011;30483;49.576;6.036;2024-03-25T12:37:45;2.90;;;1.60;;
44762;SDS011;30483;49.576;6.036;2024-03-25T12:40:33;3.30;;;1.40;;
44762;SDS011;30483;49.576;6.036;2024-03-25T12:42:58;2.70;;;1.20;;
44762;SDS011;30483;49.576;6.036;2024-03-25T12:45:23;3.08;;;1.40;;
44762;SDS011;30483;49.576;6.036;2024-03-25T12:47:52;3.95;;;1.30;;
44762;SDS011;30483;49.576;6.036;2024-03-25T12:50:18;3.03;;;1.40;;
44762;SDS011;30483;49.576;6.036;2024-03-25T12:52:44;3.85;;;1.50;;
44762;SDS011;30483;49.576;6.036;2024-03-25T12:57:43;2.35;;;1.33;;
44762;SDS011;30483;49.576;6.036;2024-03-25T13:00:09;4.03;;;1.40;;
44762;SDS011;30483;49.576;6.036;2024-03-25T13:02:35;4.20;;;1.40;;
44762;SDS011;30483;49.576;6.036;2024-03-25T13:05:01;4.13;;;1.50;;
44762;SDS011;30483;49.576;6.036;2024-03-25T13:07:27;3.03;;;1.30;;
44762;SDS011;30483;49.576;6.036;2024-03-25T13:09:52;3.80;;;1.30;;
44762;SDS011;30483;49.576;6.036;2024-03-25T13:12:18;2.90;;;1.40;;
44762;SDS011;30483;49.576;6.036;2024-03-25T13:14:43;2.85;;;1.48;;
44762;SDS011;30483;49.576;6.036;2024-03-25T13:17:09;4.15;;;1.38;;
44762;SDS011;30483;49.576;6.036;2024-03-25T13:19:35;4.70;;;1.42;;
44762;SDS011;30483;49.576;6.036;2024-03-25T13:22:00;3.17;;;1.30;;
44762;SDS011;30483;49.576;6.036;2024-03-25T13:24:26;3.03;;;1.38;;
44762;SDS011;30483;49.576;6.036;2024-03-25T13:26:51;4.10;;;1.60;;
44762;SDS011;30483;49.576;6.036;2024-03-25T13:29:17;1.88;;;1.20;;
44762;SDS011;30483;49.576;6.036;2024-03-25T13:31:43;3.75;;;1.65;;
44762;SDS011;30483;49.576;6.036;2024-03-25T13:34:09;2.80;;;1.20;;
44762;SDS011;30483;49.576;6.036;2024-03-25T13:36:35;2.10;;;1.20;;
44762;SDS011;30483;49.576;6.036;2024-03-25T13:39:02;2.38;;;1.40;;
44762;SDS011;30483;49.576;6.036;2024-03-25T13:41:28;2.20;;;1.10;;
44762;SDS011;30483;49.576;6.036;2024-03-25T13:43:54;4.25;;;1.63;;
44762;SDS011;30483;49.576;6.036;2024-03-25T13:46:20;2.85;;;1.30;;
44762;SDS011;30483;49.576;6.036;2024-03-25T13:48:49;2.33;;;1.30;;
44762;SDS011;30483;49.576;6.036;2024-03-25T13:51:15;2.60;;;1.33;;
44762;SDS011;30483;49.576;6.036;2024-03-25T13:53:41;2.83;;;1.20;;
44762;SDS011;30483;49.576;6.036;2024-03-25T13:56:07;1.90;;;1.20;;
44762;SDS011;30483;49.576;6.036;2024-03-25T13:58:33;4.25;;;1.33;;
44762;SDS011;30483;49.576;6.036;2024-03-25T14:00:59;3.83;;;1.20;;
44762;SDS011;30483;49.576;6.036;2024-03-25T14:03:26;4.00;;;1.70;;
44762;SDS011;30483;49.576;6.036;2024-03-25T14:05:52;4.25;;;1.58;;
44762;SDS011;30483;49.576;6.036;2024-03-25T14:08:18;4.43;;;1.45;;
44762;SDS011;30483;49.576;6.036;2024-03-25T14:10:43;3.10;;;1.50;;
44762;SDS011;30483;49.576;6.036;2024-03-25T14:13:09;2.80;;;1.15;;
44762;SDS011;30483;49.576;6.036;2024-03-25T14:15:36;1.73;;;1.20;;
44762;SDS011;30483;49.576;6.036;2024-03-25T14:18:01;2.20;;;1.45;;
44762;SDS011;30483;49.576;6.036;2024-03-25T14:20:27;2.60;;;1.50;;
44762;SDS011;30483;49.576;6.036;2024-03-25T14:22:53;3.47;;;1.40;;
44762;SDS011;30483;49.576;6.036;2024-03-25T14:25:18;4.07;;;1.60;;
44762;SDS011;30483;49.576;6.036;2024-03-25T14:27:44;4.38;;;1.58;;
44762;SDS011;30483;49.576;6.036;2024-03-25T14:30:10;2.65;;;1.50;;
44762;SDS011;30483;49.576;6.036;2024-03-25T14:32:36;3.35;;;1.60;;
44762;SDS011;30483;49.576;6.036;2024-03-25T14:35:05;2.45;;;1.33;;
44762;SDS011;30483;49.576;6.036;2024-03-25T14:37:31;3.15;;;1.50;;
44762;SDS011;30483;49.576;6.036;2024-03-25T14:39:57;2.20;;;1.10;;
44762;SDS011;30483;49.576;6.036;2024-03-25T14:42:24;3.28;;;1.42;;
44762;SDS011;30483;49.576;6.036;2024-03-25T14:44:50;2.90;;;1.40;;
44762;SDS011;30483;49.576;6.036;2024-03-25T14:47:15;3.35;;;1.45;;
44762;SDS011;30483;49.576;6.036;2024-03-25T14:49:41;1.65;;;1.02;;
44762;SDS011;30483;49.576;6.036;2024-03-25T14:52:06;2.65;;;1.30;;
44762;SDS011;30483;49.576;6.036;2024-03-25T14:54:32;4.72;;;1.42;;
44762;SDS011;30483;49.576;6.036;2024-03-25T14:56:59;2.42;;;1.40;;
44762;SDS011;30483;49.576;6.036;2024-03-25T14:59:25;3.40;;;1.33;;
44762;SDS011;30483;49.576;6.036;2024-03-25T15:01:57;3.97;;;1.30;;
44762;SDS011;30483;49.576;6.036;2024-03-25T15:04:24;3.25;;;1.38;;
44762;SDS011;30483;49.576;6.036;2024-03-25T15:06:50;3.63;;;1.40;;
44762;SDS011;30483;49.576;6.036;2024-03-25T15:09:15;3.15;;;1.25;;
44762;SDS011;30483;49.576;6.036;2024-03-25T15:11:41;4.22;;;1.20;;
44762;SDS011;30483;49.576;6.036;2024-03-25T15:14:06;3.50;;;1.40;;
44762;SDS011;30483;49.576;6.036;2024-03-25T15:16:33;4.50;;;1.33;;
44762;SDS011;30483;49.576;6.036;2024-03-25T15:18:58;2.20;;;1.30;;
44762;SDS011;30483;49.576;6.036;2024-03-25T15:21:24;1.95;;;1.30;;
44762;SDS011;30483;49.576;6.036;2024-03-25T15:23:50;3.05;;;1.45;;
44762;SDS011;30483;49.576;6.036;2024-03-25T15:26:15;1.95;;;1.20;;
44762;SDS011;30483;49.576;6.036;2024-03-25T15:28:41;2.33;;;1.40;;
44762;SDS011;30483;49.576;6.036;2024-03-25T15:31:06;2.10;;;1.30;;
44762;SDS011;30483;49.576;6.036;2024-03-25T15:33:32;3.65;;;1.42;;
44762;SDS011;30483;49.576;6.036;2024-03-25T15:35:58;3.53;;;1.50;;
44762;SDS011;30483;49.576;6.036;2024-03-25T15:38:24;2.92;;;1.20;;
44762;SDS011;30483;49.576;6.036;2024-03-25T15:40:49;1.77;;;1.20;;
44762;SDS011;30483;49.576;6.036;2024-03-25T15:43:20;2.03;;;1.10;;
44762;SDS011;30483;49.576;6.036;2024-03-25T15:45:58;2.88;;;1.40;;
44762;SDS011;30483;49.576;6.036;2024-03-25T15:48:25;2.28;;;1.17;;
44762;SDS011;30483;49.576;6.036;2024-03-25T15:50:51;3.92;;;1.23;;
44762;SDS011;30483;49.576;6.036;2024-03-25T15:53:17;3.08;;;1.40;;
44762;SDS011;30483;49.576;6.036;2024-03-25T15:55:43;2.75;;;1.13;;
44762;SDS011;30483;49.576;6.036;2024-03-25T15:58:09;2.15;;;1.20;;
44762;SDS011;30483;49.576;6.036;2024-03-25T16:00:35;2.78;;;1.30;;
44762;SDS011;30483;49.576;6.036;2024-03-25T16:03:01;5.40;;;1.30;;
44762;SDS011;30483;49.576;6.036;2024-03-25T16:05:27;2.50;;;1.13;;
44762;SDS011;30483;49.576;6.036;2024-03-25T16:07:53;2.75;;;1.38;;
44762;SDS011;30483;49.576;6.036;2024-03-25T16:10:23;2.95;;;1.10;;
44762;SDS011;30483;49.576;6.036;2024-03-25T16:12:49;2.53;;;1.00;;
44762;SDS011;30483;49.576;6.036;2024-03-25T16:15:16;1.83;;;1.10;;
44762;SDS011;30483;49.576;6.036;2024-03-25T16:17:42;3.65;;;1.33;;
44762;SDS011;30483;49.576;6.036;2024-03-25T16:20:09;2.22;;;1.23;;
44762;SDS011;30483;49.576;6.036;2024-03-25T16:22:35;2.42;;;1.00;;
44762;SDS011;30483;49.576;6.036;2024-03-25T16:25:02;2.38;;;1.15;;
44762;SDS011;30483;49.576;6.036;2024-03-25T16:27:29;3.63;;;1.17;;
44762;SDS011;30483;49.576;6.036;2024-03-25T16:29:55;2.00;;;1.05;;
44762;SDS011;30483;49.576;6.036;2024-03-25T16:32:23;2.92;;;1.38;;
44762;SDS011;30483;49.576;6.036;2024-03-25T16:34:48;2.15;;;1.10;;
44762;SDS011;30483;49.576;6.036;2024-03-25T16:37:14;4.88;;;1.20;;
44762;SDS011;30483;49.576;6.036;2024-03-25T16:39:42;2.60;;;1.20;;
44762;SDS011;30483;49.576;6.036;2024-03-25T16:42:08;3.15;;;1.20;;
44762;SDS011;30483;49.576;6.036;2024-03-25T16:44:36;3.45;;;1.25;;
44762;SDS011;30483;49.576;6.036;2024-03-25T16:47:01;3.70;;;1.17;;
44762;SDS011;30483;49.576;6.036;2024-03-25T16:49:30;3.30;;;1.30;;
44762;SDS011;30483;49.576;6.036;2024-03-25T16:51:57;1.63;;;0.90;;
44762;SDS011;30483;49.576;6.036;2024-03-25T16:54:22;3.00;;;1.10;;
44762;SDS011;30483;49.576;6.036;2024-03-25T16:56:48;1.88;;;1.00;;
44762;SDS011;30483;49.576;6.036;2024-03-25T16:59:14;3.55;;;1.40;;
44762;SDS011;30483;49.576;6.036;2024-03-25T17:01:39;2.85;;;1.08;;
44762;SDS011;30483;49.576;6.036;2024-03-25T17:04:05;1.85;;;1.00;;
44762;SDS011;30483;49.576;6.036;2024-03-25T17:06:31;2.38;;;1.38;;
44762;SDS011;30483;49.576;6.036;2024-03-25T17:08:56;1.48;;;0.93;;
44762;SDS011;30483;49.576;6.036;2024-03-25T17:11:22;2.50;;;1.13;;
44762;SDS011;30483;49.576;6.036;2024-03-25T17:13:48;2.20;;;1.08;;
44762;SDS011;30483;49.576;6.036;2024-03-25T17:16:13;2.10;;;1.17;;
44762;SDS011;30483;49.576;6.036;2024-03-25T17:18:39;2.08;;;1.10;;
44762;SDS011;30483;49.576;6.036;2024-03-25T17:21:05;2.38;;;1.25;;
44762;SDS011;30483;49.576;6.036;2024-03-25T17:23:32;2.75;;;1.08;;
44762;SDS011;30483;49.576;6.036;2024-03-25T17:25:57;2.72;;;1.20;;
44762;SDS011;30483;49.576;6.036;2024-03-25T17:28:26;2.17;;;1.00;;
44762;SDS011;30483;49.576;6.036;2024-03-25T17:30:57;2.47;;;0.95;;
44762;SDS011;30483;49.576;6.036;2024-03-25T17:33:27;3.30;;;1.10;;
44762;SDS011;30483;49.576;6.036;2024-03-25T17:35:53;3.03;;;1.10;;
44762;SDS011;30483;49.576;6.036;2024-03-25T17:38:19;3.72;;;1.02;;
44762;SDS011;30483;49.576;6.036;2024-03-25T17:40:44;2.13;;;1.00;;
44762;SDS011;30483;49.576;6.036;2024-03-25T17:43:10;1.40;;;1.00;;
44762;SDS011;30483;49.576;6.036;2024-03-25T17:45:38;2.22;;;1.00;;
44762;SDS011;30483;49.576;6.036;2024-03-25T17:48:05;2.33;;;0.83;;
44762;SDS011;30483;49.576;6.036;2024-03-25T17:50:31;2.63;;;1.13;;
44762;SDS011;30483;49.576;6.036;2024-03-25T17:52:57;2.72;;;1.40;;
44762;SDS011;30483;49.576;6.036;2024-03-25T17:55:22;2.83;;;0.90;;
44762;SDS011;30483;49.576;6.036;2024-03-25T17:57:48;3.42;;;0.98;;
44762;SDS011;30483;49.576;6.036;2024-03-25T18:00:14;1.33;;;0.85;;
44762;SDS011;30483;49.576;6.036;2024-03-25T18:02:39;2.65;;;1.10;;
44762;SDS011;30483;49.576;6.036;2024-03-25T18:05:05;2.13;;;1.00;;
44762;SDS011;30483;49.576;6.036;2024-03-25T18:07:31;2.03;;;0.95;;
44762;SDS011;30483;49.576;6.036;2024-03-25T18:09:58;2.70;;;1.08;;
44762;SDS011;30483;49.576;6.036;2024-03-25T18:12:24;1.15;;;0.90;;
44762;SDS011;30483;49.576;6.036;2024-03-25T18:14:50;1.90;;;1.08;;
44762;SDS011;30483;49.576;6.036;2024-03-25T18:17:16;2.25;;;1.10;;
44762;SDS011;30483;49.576;6.036;2024-03-25T18:19:42;1.95;;;1.00;;
44762;SDS011;30483;49.576;6.036;2024-03-25T18:22:07;1.88;;;1.10;;
44762;SDS011;30483;49.576;6.036;2024-03-25T18:24:34;1.80;;;0.90;;
44762;SDS011;30483;49.576;6.036;2024-03-25T18:27:01;2.70;;;0.90;;
44762;SDS011;30483;49.576;6.036;2024-03-25T18:29:30;1.70;;;0.80;;
44762;SDS011;30483;49.576;6.036;2024-03-25T18:31:56;1.67;;;0.80;;
44762;SDS011;30483;49.576;6.036;2024-03-25T18:34:21;1.48;;;0.80;;
44762;SDS011;30483;49.576;6.036;2024-03-25T18:36:48;1.95;;;0.80;;
44762;SDS011;30483;49.576;6.036;2024-03-25T18:39:14;1.92;;;0.95;;
44762;SDS011;30483;49.576;6.036;2024-03-25T18:41:39;2.10;;;1.00;;
44762;SDS011;30483;49.576;6.036;2024-03-25T18:44:05;1.50;;;1.00;;
44762;SDS011;30483;49.576;6.036;2024-03-25T18:46:31;2.08;;;0.85;;
44762;SDS011;30483;49.576;6.036;2024-03-25T18:48:57;1.25;;;0.80;;
44762;SDS011;30483;49.576;6.036;2024-03-25T18:51:22;1.35;;;0.93;;
44762;SDS011;30483;49.576;6.036;2024-03-25T18:53:49;1.65;;;1.05;;
44762;SDS011;30483;49.576;6.036;2024-03-25T18:56:15;2.17;;;1.00;;
44762;SDS011;30483;49.576;6.036;2024-03-25T18:58:40;1.73;;;0.85;;
44762;SDS011;30483;49.576;6.036;2024-03-25T19:01:06;2.47;;;1.00;;
44762;SDS011;30483;49.576;6.036;2024-03-25T19:03:35;1.25;;;0.82;;
44762;SDS011;30483;49.576;6.036;2024-03-25T19:06:02;2.05;;;1.00;;
44762;SDS011;30483;49.576;6.036;2024-03-25T19:08:27;1.48;;;0.80;;
44762;SDS011;30483;49.576;6.036;2024-03-25T19:10:54;1.85;;;0.88;;
44762;SDS011;30483;49.576;6.036;2024-03-25T19:13:20;1.65;;;0.90;;
44762;SDS011;30483;49.576;6.036;2024-03-25T19:15:48;2.22;;;0.95;;
44762;SDS011;30483;49.576;6.036;2024-03-25T19:18:13;2.10;;;0.90;;
44762;SDS011;30483;49.576;6.036;2024-03-25T19:20:39;1.65;;;0.93;;
44762;SDS011;30483;49.576;6.036;2024-03-25T19:23:06;3.33;;;1.10;;
44762;SDS011;30483;49.576;6.036;2024-03-25T19:25:31;1.95;;;0.90;;
44762;SDS011;30483;49.576;6.036;2024-03-25T19:27:57;2.92;;;0.95;;
44762;SDS011;30483;49.576;6.036;2024-03-25T19:30:23;2.00;;;0.90;;
44762;SDS011;30483;49.576;6.036;2024-03-25T19:32:48;1.83;;;0.93;;